createdAt,value
2019-03-26T00:00:15.337Z,28.33
2019-03-26T00:02:52.037Z,26.37
2019-03-26T00:05:25.597Z,33.57
2019-03-26T00:08:07.678Z,23.57
2019-03-26T00:10:41.217Z,21.37
2019-03-26T00:13:22.080Z,21.23
2019-03-26T00:15:55.991Z,27.57
2019-03-26T00:18:31.664Z,28.13
2019-03-26T00:21:07.843Z,22.17
2019-03-26T00:23:45.773Z,24.00
2019-03-26T00:26:20.242Z,24.20
2019-03-26T00:28:58.090Z,21.07
2019-03-26T00:31:31.628Z,21.83
2019-03-26T00:34:18.290Z,27.13
2019-03-26T00:36:48.764Z,27.07
2019-03-26T00:39:29.554Z,21.70
2019-03-26T00:42:03.541Z,16.33
2019-03-26T00:44:43.816Z,23.67
2019-03-26T00:47:17.137Z,18.77
2019-03-26T00:49:54.281Z,21.63
2019-03-26T00:52:38.933Z,20.73
2019-03-26T00:55:25.206Z,23.50
2019-03-26T00:58:03.249Z,19.33
2019-03-26T01:00:48.082Z,25.83
2019-03-26T01:03:22.271Z,18.97
2019-03-26T01:06:12.567Z,27.57
2019-03-26T01:08:49.488Z,23.43
2019-03-26T01:11:25.932Z,17.60
2019-03-26T01:14:03.935Z,20.30
2019-03-26T01:16:46.947Z,24.67
2019-03-26T01:19:26.693Z,16.27
2019-03-26T01:22:05.038Z,21.93
2019-03-26T01:24:59.771Z,25.27
2019-03-26T01:27:34.711Z,19.03
2019-03-26T01:30:24.264Z,20.90
2019-03-26T01:33:06.155Z,23.40
2019-03-26T01:35:46.815Z,19.33
2019-03-26T01:38:27.205Z,15.33
2019-03-26T01:41:13.056Z,24.43
2019-03-26T01:43:55.268Z,14.40
2019-03-26T01:46:39.732Z,20.07
2019-03-26T01:49:24.940Z,23.30
2019-03-26T01:52:06.502Z,21.77
2019-03-26T01:54:45.870Z,24.97
2019-03-26T01:57:23.626Z,25.00
2019-03-26T02:00:01.084Z,22.63
2019-03-26T02:02:33.334Z,21.53
2019-03-26T02:05:07.013Z,23.70
2019-03-26T02:07:45.693Z,19.27
2019-03-26T02:10:16.112Z,17.23
2019-03-26T02:12:50.631Z,21.97
2019-03-26T02:15:31.309Z,14.00
2019-03-26T02:18:06.490Z,23.00
2019-03-26T02:20:49.652Z,15.80
2019-03-26T02:23:25.481Z,14.20
2019-03-26T02:26:01.101Z,18.37
2019-03-26T02:28:40.210Z,18.70
2019-03-26T02:31:21.479Z,21.07
2019-03-26T02:33:49.565Z,19.97
2019-03-26T02:36:27.818Z,13.57
2019-03-26T02:39:02.330Z,24.73
2019-03-26T02:41:39.636Z,19.27
2019-03-26T02:44:18.433Z,18.83
2019-03-26T02:46:53.087Z,16.60
2019-03-26T02:49:29.414Z,17.10
2019-03-26T02:52:09.811Z,18.10
2019-03-26T02:54:45.610Z,19.97
2019-03-26T02:57:27.116Z,12.50
2019-03-26T03:00:06.250Z,21.93
2019-03-26T03:02:56.114Z,15.13
2019-03-26T03:05:36.294Z,16.60
2019-03-26T03:08:11.423Z,13.53
2019-03-26T03:10:49.537Z,22.63
2019-03-26T03:13:25.622Z,16.07
2019-03-26T03:16:08.427Z,16.23
2019-03-26T03:18:46.334Z,19.33
2019-03-26T03:24:16.417Z,19.33
2019-03-26T03:29:41.012Z,16.97
2019-03-26T03:32:16.902Z,21.37
2019-03-26T03:34:49.489Z,21.57
2019-03-26T03:37:23.725Z,14.73
2019-03-26T03:39:57.239Z,14.20
2019-03-26T03:42:34.320Z,22.13
2019-03-26T03:45:18.723Z,26.97
2019-03-26T03:48:04.835Z,22.93
2019-03-26T03:50:46.352Z,17.20
2019-03-26T03:53:24.251Z,17.10
2019-03-26T03:55:57.488Z,18.53
2019-03-26T03:58:37.082Z,16.17
2019-03-26T04:01:16.266Z,19.60
2019-03-26T04:03:50.833Z,12.87
2019-03-26T04:06:29.207Z,14.90
2019-03-26T04:09:07.519Z,21.93
2019-03-26T04:11:42.303Z,22.43
2019-03-26T04:14:16.331Z,23.77
2019-03-26T04:16:57.547Z,18.00
2019-03-26T04:19:27.883Z,20.23
2019-03-26T04:22:05.224Z,25.87
2019-03-26T04:24:43.874Z,22.97
2019-03-26T04:27:32.077Z,19.23
2019-03-26T04:30:09.295Z,22.53
2019-03-26T04:32:42.475Z,15.57
2019-03-26T04:35:27.422Z,19.80
2019-03-26T04:38:01.022Z,22.73
2019-03-26T04:40:36.462Z,22.97
2019-03-26T04:43:14.360Z,15.87
2019-03-26T04:45:48.549Z,17.57
2019-03-26T04:48:26.788Z,19.57
2019-03-26T04:51:07.642Z,16.30
2019-03-26T04:53:52.008Z,17.23
2019-03-26T04:56:36.809Z,17.93
2019-03-26T04:59:25.824Z,18.50
2019-03-26T05:02:04.728Z,19.00
2019-03-26T05:04:43.782Z,24.73
2019-03-26T05:07:18.878Z,18.70
2019-03-26T05:09:59.353Z,14.17
2019-03-26T05:12:49.185Z,21.73
2019-03-26T05:15:35.619Z,14.47
2019-03-26T05:19:09.954Z,14.80
2019-03-26T05:21:03.068Z,19.80
2019-03-26T05:23:43.057Z,17.87
2019-03-26T05:26:25.487Z,24.37
2019-03-26T05:29:09.795Z,19.33
2019-03-26T05:31:50.161Z,26.57
2019-03-26T05:37:31.436Z,14.47
2019-03-26T05:40:15.093Z,17.70
2019-03-26T05:42:55.311Z,18.17
2019-03-26T05:45:36.619Z,19.30
2019-03-26T05:48:34.803Z,17.87
2019-03-26T05:51:20.487Z,20.23
2019-03-26T05:57:04.517Z,24.27
2019-03-26T06:03:09.572Z,17.43
2019-03-26T06:06:15.287Z,17.77
2019-03-26T06:12:40.613Z,19.37
2019-03-26T06:18:11.274Z,19.70
2019-03-26T06:22:02.680Z,18.90
2019-03-26T06:28:10.875Z,13.93
2019-03-26T06:43:53.677Z,16.77
2019-03-26T06:46:26.351Z,40.10
2019-03-26T06:55:10.826Z,12.67
2019-03-26T07:13:31.686Z,25.40
2019-03-26T07:16:20.514Z,13.90
2019-03-26T07:19:24.333Z,12.03
2019-03-26T07:25:15.688Z,19.43
2019-03-26T07:28:14.715Z,20.27
2019-03-26T07:30:58.161Z,16.33
2019-03-26T07:41:56.228Z,20.60
2019-03-26T08:21:45.116Z,20.67
2019-03-26T08:24:49.640Z,16.97
2019-03-26T08:27:50.465Z,8.67
2019-03-26T08:42:21.267Z,14.30
2019-03-26T08:55:22.033Z,13.90
2019-03-26T09:00:51.086Z,12.70
2019-03-26T09:03:52.238Z,11.47
2019-03-26T09:13:05.050Z,15.13
2019-03-26T09:16:42.627Z,18.47
2019-03-26T09:20:10.429Z,10.33
2019-03-26T09:35:25.682Z,21.07
2019-03-26T09:52:44.090Z,12.80
2019-03-26T09:56:08.898Z,10.67
2019-03-26T09:59:04.775Z,7.93
2019-03-26T10:01:39.138Z,9.50
2019-03-26T10:04:24.520Z,14.00
2019-03-26T10:06:54.433Z,11.87
2019-03-26T10:09:33.250Z,10.23
2019-03-26T10:12:15.130Z,10.17
2019-03-26T10:14:59.878Z,12.67
2019-03-26T10:17:47.118Z,10.47
2019-03-26T10:20:17.102Z,13.83
2019-03-26T10:22:46.962Z,11.07
2019-03-26T10:25:27.655Z,12.50
2019-03-26T10:31:15.317Z,10.37
2019-03-26T10:48:04.649Z,11.63
2019-03-26T10:58:11.381Z,14.03
2019-03-26T11:01:04.025Z,8.07
2019-03-26T11:06:41.676Z,12.10
2019-03-26T11:09:27.975Z,10.00
2019-03-26T11:12:22.920Z,10.23
2019-03-26T11:15:01.516Z,9.00
2019-03-26T11:18:07.332Z,9.27
2019-03-26T11:21:03.166Z,10.20
2019-03-26T11:27:26.224Z,7.40
2019-03-26T11:33:53.021Z,8.73
2019-03-26T11:36:27.409Z,10.10
2019-03-26T11:38:59.988Z,9.50
2019-03-26T11:45:13.907Z,4.70
2019-03-26T11:50:56.513Z,6.03
2019-03-26T12:11:55.412Z,6.40
2019-03-26T12:14:29.668Z,7.33
2019-03-26T12:20:37.651Z,7.40
2019-03-26T12:26:23.542Z,5.43
2019-03-26T12:35:47.257Z,13.80
2019-03-26T12:58:10.117Z,5.73
2019-03-26T13:13:01.340Z,9.93
2019-03-26T13:32:04.064Z,6.40
2019-03-26T13:37:04.419Z,8.30
2019-03-26T13:44:48.440Z,9.03
2019-03-26T13:47:29.678Z,6.70
2019-03-26T13:50:38.716Z,8.00
2019-03-26T14:02:03.175Z,5.87
2019-03-26T14:04:37.326Z,6.13
2019-03-26T14:07:08.675Z,5.80
2019-03-26T14:19:23.857Z,6.30
2019-03-26T14:22:01.066Z,33.57
2019-03-26T14:34:51.884Z,6.13
2019-03-26T14:37:30.970Z,25.23
2019-03-26T14:46:55.906Z,7.90
2019-03-26T14:49:46.932Z,4.77
2019-03-26T14:52:28.080Z,5.53
2019-03-26T14:55:04.992Z,5.17
2019-03-26T14:57:39.406Z,5.50
2019-03-26T15:00:15.193Z,7.00
2019-03-26T15:02:56.304Z,14.10
2019-03-26T15:05:26.184Z,5.00
2019-03-26T15:07:56.138Z,6.00
2019-03-26T15:10:26.008Z,5.73
2019-03-26T15:13:02.863Z,4.80
2019-03-26T15:15:38.564Z,4.07
2019-03-26T15:18:14.587Z,5.23
2019-03-26T15:20:44.678Z,5.57
2019-03-26T15:23:28.318Z,5.43
2019-03-26T15:26:05.193Z,4.27
2019-03-26T15:28:36.092Z,6.10
2019-03-26T15:31:32.505Z,4.30
2019-03-26T15:34:13.667Z,9.17
2019-03-26T15:36:52.864Z,5.27
2019-03-26T15:39:22.996Z,6.10
2019-03-26T15:41:53.315Z,8.07
2019-03-26T15:44:28.085Z,9.10
2019-03-26T15:47:07.870Z,8.27
2019-03-26T15:49:40.131Z,6.33
2019-03-26T15:52:13.963Z,7.40
2019-03-26T15:54:45.684Z,8.60
2019-03-26T16:04:04.584Z,9.10
2019-03-26T16:30:17.586Z,9.00
2019-03-26T16:33:26.791Z,9.30
2019-03-26T16:57:52.750Z,12.67
2019-03-26T17:00:33.991Z,11.30
2019-03-26T17:03:08.756Z,12.73
2019-03-26T17:08:46.087Z,10.10
2019-03-26T17:12:27.080Z,13.80
2019-03-26T17:14:39.508Z,17.80
2019-03-26T17:17:25.341Z,17.63
2019-03-26T17:20:15.448Z,13.43
2019-03-26T17:22:50.374Z,12.93
2019-03-26T17:28:14.890Z,18.97
2019-03-26T17:30:48.191Z,17.03
2019-03-26T17:36:23.794Z,20.07
2019-03-26T17:39:08.414Z,16.40
2019-03-26T17:41:40.805Z,15.93
2019-03-26T17:44:14.585Z,18.53
2019-03-26T17:46:52.407Z,19.70
2019-03-26T17:49:27.624Z,15.67
2019-03-26T17:52:12.142Z,8.00
2019-03-26T17:54:54.281Z,10.93
2019-03-26T18:00:48.707Z,5.70
2019-03-26T18:03:35.810Z,8.90
2019-03-26T18:06:26.554Z,8.47
2019-03-26T18:08:59.164Z,9.53
2019-03-26T18:11:54.452Z,17.03
2019-03-26T18:14:50.860Z,14.97
2019-03-26T18:27:43.457Z,17.17
2019-03-26T18:34:20.416Z,18.50
2019-03-26T18:58:39.123Z,11.70
2019-03-26T19:01:30.083Z,15.87
2019-03-26T19:06:40.542Z,8.77
2019-03-26T19:09:20.670Z,9.63
2019-03-26T19:12:13.712Z,13.93
2019-03-26T19:14:55.355Z,9.73
2019-03-26T19:17:38.719Z,12.63
2019-03-26T19:20:20.075Z,7.13
2019-03-26T19:29:01.445Z,13.73
2019-03-26T20:02:10.706Z,14.43
2019-03-26T20:04:48.547Z,11.10
2019-03-26T20:07:22.132Z,16.43
2019-03-26T20:09:57.331Z,13.37
2019-03-26T20:12:34.668Z,16.10
2019-03-26T20:15:10.474Z,13.40
2019-03-26T20:17:42.178Z,17.50
2019-03-26T20:20:17.881Z,21.30
2019-03-26T20:54:08.134Z,10.60
2019-03-26T21:02:27.101Z,19.13
2019-03-26T21:05:16.453Z,12.07
2019-03-26T21:11:12.572Z,20.17
2019-03-26T21:17:10.846Z,18.87
2019-03-26T21:23:09.334Z,14.13
2019-03-26T21:29:03.052Z,13.07
2019-03-26T21:38:03.294Z,19.27
2019-03-26T22:02:43.905Z,11.80
2019-03-26T22:27:12.820Z,11.87
2019-03-26T22:30:21.468Z,14.70
2019-03-26T22:32:48.721Z,13.47
2019-03-26T22:38:37.116Z,15.47
2019-03-26T22:41:33.991Z,17.33
2019-03-26T22:44:46.128Z,12.60
2019-03-26T22:47:08.733Z,13.93
2019-03-26T22:50:01.826Z,19.23
2019-03-26T22:52:40.312Z,17.73
2019-03-26T22:55:44.041Z,11.80
2019-03-26T23:04:03.558Z,14.47
2019-03-26T23:06:51.474Z,17.60
2019-03-26T23:12:50.923Z,14.93
2019-03-26T23:19:07.936Z,19.17
2019-03-26T23:21:50.526Z,13.73
2019-03-26T23:24:31.990Z,13.73
2019-03-26T23:27:24.859Z,12.10
2019-03-26T23:30:08.185Z,15.47
2019-03-26T23:33:20.705Z,16.27
2019-03-26T23:36:05.400Z,16.20
2019-03-26T23:39:24.859Z,19.03
2019-03-26T23:42:06.165Z,17.47
2019-03-26T23:48:05.274Z,18.07
2019-03-26T23:50:43.493Z,17.63
2019-03-26T23:56:41.903Z,18.20
2019-03-26T23:59:37.266Z,17.20
